Old Milo, Arkansas
Current Conditions -  °F | °C
As of 4:55 AM on Friday 19 Dec 2014 (Local Time) from KBQP Reporting Station
Overcast Overcast  
Wind Chill: 46°   Ceiling: 3000
Heat Index: 46°   Visibility: 10mi
Dew Point: 43°   Wind: 3mph
Humidity: 90%   Direction: 30°NNE
Pressure: 30.16"   Gusts: NA
Location:  33.1762°N, 91.7595°W
Report Text: KBQP 191055Z AUTO 03003KT 10SM OVC030 08/06 A3016 RMK AO2 T00780062
Loading
Personal Weather Stations






























Interactive Weather Map New forecast layout! Learn more

10-Day Weather Forecast

Advertisements
Track Severe Weather on mobile